createdAt,value
2019-02-25T08:19:35.380Z,7.90
2019-02-25T08:22:34.084Z,9.00
2019-02-25T08:25:38.555Z,10.00
2019-02-25T08:28:34.128Z,10.40
2019-02-25T08:31:17.806Z,10.20
2019-02-25T08:34:18.272Z,10.10
2019-02-25T08:37:42.925Z,10.80
2019-02-25T08:41:01.783Z,11.50
2019-02-25T08:43:57.676Z,11.90
2019-02-25T08:46:38.370Z,11.90
2019-02-25T08:49:17.348Z,13.00
2019-02-25T08:51:48.144Z,13.50
2019-02-25T08:54:19.595Z,13.70
2019-02-25T08:56:49.968Z,13.90
2019-02-25T08:59:20.340Z,14.00
2019-02-25T09:01:50.724Z,14.00
2019-02-25T09:04:21.664Z,14.20
2019-02-25T09:06:52.138Z,14.30
2019-02-25T09:09:23.504Z,14.60
2019-02-25T09:11:53.876Z,15.10
2019-02-25T09:14:24.258Z,13.90
2019-02-25T09:16:54.720Z,14.90
2019-02-25T09:19:25.147Z,15.00
2019-02-25T09:21:55.552Z,14.90
2019-02-25T09:24:25.918Z,14.90
2019-02-25T09:26:56.378Z,14.90
2019-02-25T09:29:26.812Z,13.90
2019-02-25T09:31:57.352Z,13.50
2019-02-25T09:34:27.866Z,14.20
2019-02-25T09:36:59.308Z,15.50
2019-02-25T09:39:29.671Z,16.90
2019-02-25T09:42:02.075Z,18.10
2019-02-25T09:44:32.179Z,18.30
2019-02-25T09:47:02.535Z,19.20
2019-02-25T09:49:32.903Z,19.10
2019-02-25T09:52:03.260Z,17.90
2019-02-25T09:54:33.656Z,16.20
2019-02-25T09:57:04.008Z,16.60
2019-02-25T09:59:34.480Z,17.10
2019-02-25T10:02:04.865Z,17.20
2019-02-25T10:04:35.256Z,17.70
2019-02-25T10:07:05.628Z,18.40
2019-02-25T10:09:36.027Z,18.70
2019-02-25T10:12:06.471Z,18.80
2019-02-25T10:14:36.954Z,19.40
2019-02-25T10:17:07.396Z,19.20
2019-02-25T10:19:37.864Z,19.30
2019-02-25T10:22:08.272Z,19.60
2019-02-25T10:24:39.904Z,20.50
2019-02-25T10:27:12.216Z,20.50
2019-02-25T10:29:42.596Z,20.50
2019-02-25T10:32:12.996Z,20.20
2019-02-25T10:34:43.352Z,21.20
2019-02-25T10:37:15.577Z,20.80
2019-02-25T10:39:47.459Z,19.50
2019-02-25T10:42:17.855Z,18.50
2019-02-25T10:44:48.212Z,17.60
2019-02-25T10:47:19.898Z,19.00
2019-02-25T10:49:50.752Z,20.40
2019-02-25T10:52:21.216Z,21.90
2019-02-25T10:54:54.006Z,21.60
2019-02-25T10:57:27.126Z,20.80
2019-02-25T10:59:57.200Z,20.10
2019-02-25T11:02:27.591Z,17.70
2019-02-25T11:04:57.964Z,16.70
2019-02-25T11:07:28.764Z,16.60
2019-02-25T11:10:18.674Z,15.90
2019-02-25T11:12:49.537Z,15.80
2019-02-25T11:15:20.037Z,17.00
2019-02-25T11:17:51.815Z,17.00
2019-02-25T11:20:22.663Z,19.50
2019-02-25T11:22:53.284Z,20.70
2019-02-25T11:25:25.735Z,21.30
2019-02-25T11:27:56.003Z,21.70
2019-02-25T11:30:27.073Z,21.30
2019-02-25T11:32:59.975Z,22.10
2019-02-25T11:35:31.176Z,21.60
2019-02-25T11:38:02.201Z,22.50
2019-02-25T11:40:34.133Z,22.20
2019-02-25T11:43:04.900Z,22.00
2019-02-25T11:45:36.400Z,22.20
2019-02-25T11:48:07.542Z,23.80
2019-02-25T11:50:38.764Z,25.30
2019-02-25T11:53:09.789Z,26.50
2019-02-25T11:55:41.250Z,25.70
2019-02-25T11:58:12.317Z,24.60
2019-02-25T12:00:43.400Z,24.10
2019-02-25T12:03:13.848Z,24.30
2019-02-25T12:05:44.817Z,23.20
2019-02-25T12:08:16.057Z,22.90
2019-02-25T12:10:47.100Z,23.90
2019-02-25T12:13:18.200Z,24.90
2019-02-25T12:15:49.572Z,23.30
2019-02-25T12:18:21.365Z,24.00
2019-02-25T12:20:51.779Z,24.90
2019-02-25T12:23:22.163Z,24.10
2019-02-25T12:25:52.556Z,22.60
2019-02-25T12:28:23.531Z,22.00
2019-02-25T12:30:54.013Z,20.60
2019-02-25T12:33:25.010Z,19.60
2019-02-25T12:35:55.897Z,19.70
2019-02-25T12:38:26.712Z,18.70
2019-02-25T12:40:57.177Z,17.40
2019-02-25T12:43:27.568Z,16.90
2019-02-25T12:45:58.064Z,17.20
2019-02-25T12:48:28.448Z,14.20
2019-02-25T12:50:59.688Z,14.20
2019-02-25T12:53:30.244Z,13.50
2019-02-25T12:56:00.640Z,13.30
2019-02-25T12:58:31.124Z,13.20
2019-02-25T13:01:01.636Z,13.20
2019-02-25T13:03:32.184Z,13.10
2019-02-25T13:06:02.560Z,12.90
2019-02-25T13:08:33.348Z,13.00
2019-02-25T13:11:03.845Z,12.80
2019-02-25T13:13:34.293Z,12.60
2019-02-25T13:16:05.080Z,12.40
2019-02-25T13:18:35.768Z,12.20
2019-02-25T13:21:06.185Z,12.00
2019-02-25T13:23:36.652Z,12.10
2019-02-25T13:26:07.569Z,12.20
2019-02-25T13:28:38.383Z,12.20
2019-02-25T13:31:10.216Z,12.40
2019-02-25T13:33:40.917Z,12.50
2019-02-25T13:36:12.976Z,12.50
2019-02-25T13:38:43.596Z,12.50
2019-02-25T13:41:14.148Z,12.40
2019-02-25T13:43:44.596Z,12.30
2019-02-25T13:46:15.925Z,12.20
2019-02-25T13:51:17.195Z,12.10
2019-02-25T13:53:48.086Z,12.20
2019-02-25T13:56:18.541Z,12.20
2019-02-25T13:58:48.976Z,12.20
2019-02-25T14:01:19.560Z,12.20
2019-02-25T14:03:50.578Z,12.20
2019-02-25T14:06:21.099Z,12.40
2019-02-25T14:08:51.571Z,12.50
2019-02-25T14:11:22.020Z,12.50
2019-02-25T14:13:52.517Z,12.80
2019-02-25T14:16:23.860Z,12.80
2019-02-25T14:18:54.316Z,12.80
2019-02-25T14:21:24.812Z,12.70
2019-02-25T14:23:57.662Z,13.00
2019-02-25T14:26:27.333Z,13.10
2019-02-25T14:28:57.824Z,14.10
2019-02-25T14:31:29.963Z,13.30
2019-02-25T14:34:00.626Z,13.30
2019-02-25T14:36:31.137Z,13.30
2019-02-25T14:39:04.283Z,12.80
2019-02-25T14:41:35.446Z,12.70
2019-02-25T14:44:06.285Z,12.50
2019-02-25T14:46:36.820Z,12.60
2019-02-25T14:49:08.179Z,12.60
2019-02-25T14:51:38.788Z,12.40
2019-02-25T14:54:09.300Z,12.20
2019-02-25T14:56:42.929Z,12.10
2019-02-25T14:59:15.135Z,12.00
2019-02-25T15:01:45.444Z,11.60
2019-02-25T15:04:15.955Z,11.50
2019-02-25T15:06:46.451Z,11.40
2019-02-25T15:09:18.082Z,11.40
2019-02-25T15:11:51.166Z,11.40
2019-02-25T15:14:22.236Z,11.50
2019-02-25T15:16:53.040Z,12.20
2019-02-25T15:19:24.596Z,13.10
2019-02-25T15:21:56.388Z,13.80
2019-02-25T15:24:27.611Z,14.30
2019-02-25T15:26:59.861Z,13.90
2019-02-25T15:29:32.113Z,13.60
2019-02-25T15:32:04.701Z,12.40
2019-02-25T15:34:37.490Z,12.00
2019-02-25T15:37:09.412Z,11.50
2019-02-25T15:39:42.404Z,11.20
2019-02-25T15:42:14.003Z,10.70
2019-02-25T15:44:47.194Z,10.50
2019-02-25T15:47:17.064Z,10.20
2019-02-25T15:52:18.806Z,9.90
2019-02-25T15:54:50.394Z,9.70
2019-02-25T15:57:22.584Z,9.70
2019-02-25T15:59:54.460Z,9.50
2019-02-25T16:02:25.485Z,9.40
2019-02-25T17:20:10.205Z,7.70
2019-02-25T17:22:39.660Z,7.60
2019-02-25T17:47:02.145Z,7.10
2019-02-25T17:52:05.039Z,7.00
2019-02-25T17:54:37.635Z,7.00
2019-02-25T17:57:09.751Z,6.90
2019-02-25T20:52:26.681Z,5.80
2019-02-25T20:54:57.367Z,5.90
2019-02-25T20:57:29.525Z,5.80
2019-02-25T21:12:20.256Z,6.00
2019-02-25T21:14:52.084Z,6.00
2019-02-25T21:17:22.737Z,6.10
2019-02-25T21:19:53.223Z,6.10
2019-02-25T21:22:27.135Z,6.20
2019-02-25T21:24:57.987Z,6.30
2019-02-25T21:36:45.395Z,6.80
2019-02-25T21:39:19.136Z,6.70
2019-02-25T21:45:22.334Z,6.60
2019-02-25T22:09:08.172Z,6.70
2019-02-25T22:11:40.336Z,6.70
2019-02-25T22:14:14.121Z,6.70
2019-02-25T22:16:44.587Z,6.60
2019-02-25T22:19:16.485Z,6.60
2019-02-25T22:21:57.971Z,6.60
2019-02-25T22:24:29.104Z,6.50
2019-02-25T22:27:00.053Z,6.50
2019-02-25T22:29:38.540Z,6.50
2019-02-25T22:32:10.838Z,6.50
2019-02-25T22:34:45.343Z,6.50
2019-02-25T22:46:11.689Z,6.40
2019-02-25T22:51:51.933Z,6.40
2019-02-25T22:54:25.570Z,6.40
2019-02-25T22:56:57.950Z,6.30
2019-02-25T23:04:32.526Z,6.30
2019-02-25T23:07:03.899Z,6.30
2019-02-25T23:09:34.692Z,6.30
